Time;durP1;ratioP1;P1;durP2;ratioP2;P2;SDS_P1;SDS_P2;PMS_P1;PMS_P2;Temp;Humidity;BMP_temperature;BMP_pressure;BME280_temperature;BME280_humidity;BME280_pressure;Samples;Min_cycle;Max_cycle;Signal;HPM_P1;HPM_P2
2023/10/17 00:07:13;;;;;;;1.07;0.67;;;;;;;;;;20866394;28;20221;-64
2023/10/17 00:17:16;;;;;;;1.37;0.73;;;;;;;;;;20869025;28;20234;-67
2023/10/17 00:27:17;;;;;;;3.03;1.30;;;;;;;;;;20847816;28;20218;-66
2023/10/17 00:37:19;;;;;;;4.83;2.23;;;;;;;;;;20844543;28;20229;-68
2023/10/17 00:47:22;;;;;;;1.80;1.00;;;;;;;;;;20836165;28;20217;-66
2023/10/17 00:57:27;;;;;;;2.43;1.17;;;;;;;;;;20868722;28;20692;-69
2023/10/17 01:07:30;;;;;;;1.43;0.70;;;;;;;;;;20851228;28;20201;-66
2023/10/17 01:17:35;;;;;;;1.83;0.90;;;;;;;;;;20847097;28;20226;-65
2023/10/17 01:27:40;;;;;;;4.97;2.30;;;;;;;;;;20849232;28;20225;-65
2023/10/17 01:37:42;;;;;;;1.27;0.87;;;;;;;;;;20879852;28;20283;-65
2023/10/17 01:47:44;;;;;;;1.17;0.67;;;;;;;;;;20879230;23;20217;-66
2023/10/17 01:57:47;;;;;;;3.43;0.80;;;;;;;;;;20891760;28;20221;-65
2023/10/17 02:07:49;;;;;;;2.27;0.70;;;;;;;;;;20851828;28;20214;-66
2023/10/17 02:17:52;;;;;;;1.30;0.60;;;7.30;99.90;;;;;;20891608;28;20234;-66
2023/10/17 02:27:54;;;;;;;1.67;0.70;;;;;;;;;;20880317;28;20288;-65
2023/10/17 02:37:57;;;;;;;2.30;1.10;;;;;;;;;;20890980;28;20314;-66
2023/10/17 02:58:19;;;;;;;1.57;0.80;;;;;;;;;;20885442;28;20263;-66
2023/10/17 03:08:22;;;;;;;3.53;0.87;;;;;;;;;;20849868;28;20275;-66
2023/10/17 03:18:24;;;;;;;2.50;1.00;;;;;;;;;;20853411;28;20348;-65
2023/10/17 03:28:27;;;;;;;2.43;1.37;;;;;;;;;;20886131;28;20722;-66
2023/10/17 03:38:33;;;;;;;0.90;0.57;;;;;;;;;;20900823;28;20229;-66
2023/10/17 03:48:41;;;;;;;3.73;1.90;;;;;;;;;;20902536;28;20216;-64
2023/10/17 03:58:52;;;;;;;2.63;1.23;;;;;;;;;;20881704;28;20272;-64
2023/10/17 04:09:06;;;;;;;2.07;1.10;;;;;;;;;;20839316;28;20237;-64
2023/10/17 04:19:16;;;;;;;1.50;0.70;;;;;;;;;;20864386;28;20692;-66
2023/10/17 04:29:18;;;;;;;2.37;1.07;;;;;;;;;;20872453;28;20230;-65
2023/10/17 04:49:24;;;;;;;1.80;0.80;;;;;;;;;;20847143;28;20606;-66
2023/10/17 06:32:48;;;;;;;1.77;0.90;;;;;;;;;;20857797;28;20283;-66
2023/10/17 06:42:39;;;;;;;5.20;0.93;;;;;;;;;;20885111;28;20217;-65
2023/10/17 06:53:02;;;;;;;0.90;0.50;;;;;;;;;;20900472;28;20213;-65
2023/10/17 07:03:03;;;;;;;1.83;0.87;;;;;;;;;;20872255;28;20209;-65
2023/10/17 07:13:24;;;;;;;1.70;0.70;;;;;;;;;;20922138;28;20217;-65
2023/10/17 07:23:31;;;;;;;1.60;1.00;;;;;;;;;;20881363;28;20210;-65
2023/10/17 07:33:33;;;;;;;1.37;0.70;;;;;;;;;;20862611;28;20248;-65
2023/10/17 07:43:35;;;;;;;1.47;0.80;;;11.10;99.90;;;;;;20874754;28;20567;-65
2023/10/17 07:53:45;;;;;;;1.97;0.90;;;;;;;;;;20868797;28;20784;-65
2023/10/17 08:03:54;;;;;;;2.23;1.00;;;;;;;;;;20851611;28;20294;-65
2023/10/17 08:14:01;;;;;;;1.00;0.70;;;;;;;;;;20880156;28;20652;-65
2023/10/17 08:24:05;;;;;;;2.43;0.87;;;;;;;;;;20879415;22;20358;-75
2023/10/17 08:34:12;;;;;;;1.13;0.80;;;;;;;;;;20873635;28;20214;-75
2023/10/17 08:44:13;;;;;;;1.57;0.77;;;;;;;;;;20843873;28;20634;-75
2023/10/17 08:54:18;;;;;;;3.23;1.00;;;;;;;;;;20839930;28;20218;-75
2023/10/17 09:04:21;;;;;;;1.40;0.73;;;;;;;;;;20862205;28;20214;-75
2023/10/17 09:14:29;;;;;;;3.00;1.00;;;;;;;;;;20844348;28;20646;-75
2023/10/17 09:24:35;;;;;;;2.57;1.10;;;8.20;99.90;;;;;;20825307;28;20728;-74
2023/10/17 09:34:38;;;;;;;1.10;0.70;;;;;;;;;;20848819;28;20253;-75
2023/10/17 09:44:40;;;;;;;2.73;0.90;;;;;;;;;;20788122;28;20207;-74
2023/10/17 09:54:46;;;;;;;1.80;1.07;;;;;;;;;;20808999;28;20229;-75
2023/10/17 10:04:48;;;;;;;1.20;0.73;;;;;;;;;;20827065;28;20210;-75
2023/10/17 10:14:50;;;;;;;1.70;1.20;;;;;;;;;;20865979;28;20221;-75
2023/10/17 10:25:03;;;;;;;1.30;0.80;;;;;;;;;;20812204;28;20238;-76
2023/10/17 10:35:06;;;;;;;5.83;1.20;;;9.10;99.90;;;;;;20845388;28;20276;-75
2023/10/17 10:56:11;;;;;;;4.83;1.47;;;9.50;99.90;;;;;;20800711;28;20284;-76
2023/10/17 11:06:14;;;;;;;1.73;1.00;;;9.60;99.90;;;;;;20840999;28;20284;-75
2023/10/17 11:16:17;;;;;;;2.00;1.03;;;9.50;99.90;;;;;;20850835;28;20234;-75
2023/10/17 11:26:23;;;;;;;1.93;1.20;;;9.90;99.90;;;;;;20847646;28;20699;-76
2023/10/17 11:36:25;;;;;;;3.13;1.30;;;;;;;;;;20848008;28;20351;-76
2023/10/17 11:46:33;;;;;;;2.40;1.07;;;;;;;;;;20803130;28;20319;-77
2023/10/17 11:56:39;;;;;;;4.33;1.37;;;10.50;99.90;;;;;;20826620;28;20736;-77
2023/10/17 12:06:41;;;;;;;2.87;1.37;;;;;;;;;;20805491;28;20527;-77
2023/10/17 12:16:43;;;;;;;2.63;1.17;;;;;;;;;;20836788;28;20673;-77
2023/10/17 12:26:45;;;;;;;1.60;1.00;;;;;;;;;;20809041;28;20230;-77
2023/10/17 12:36:50;;;;;;;1.67;1.17;;;;;;;;;;20823716;28;20759;-77
2023/10/17 12:46:51;;;;;;;4.23;1.40;;;;;;;;;;20819497;28;20453;-77
2023/10/17 12:56:53;;;;;;;2.13;1.30;;;;;;;;;;20838342;28;20272;-78
2023/10/17 13:06:55;;;;;;;2.60;1.13;;;;;;;;;;20852046;28;20275;-77
2023/10/17 13:16:57;;;;;;;2.30;1.23;;;;;;;;;;20826901;28;20222;-75
2023/10/17 13:26:59;;;;;;;2.03;1.13;;;;;;;;;;20818336;28;20368;-75
2023/10/17 13:37:04;;;;;;;2.00;1.20;;;;;;;;;;20798180;28;20229;-75
2023/10/17 13:47:08;;;;;;;1.60;0.90;;;;;;;;;;20829952;28;20226;-75
2023/10/17 13:57:10;;;;;;;2.03;1.10;;;;;;;;;;20847372;28;20221;-75
2023/10/17 14:07:12;;;;;;;3.33;1.30;;;;;;;;;;20852751;28;20217;-75
2023/10/17 14:17:13;;;;;;;4.53;1.40;;;;;;;;;;20832084;28;20222;-75
2023/10/17 14:27:15;;;;;;;1.53;0.80;;;;;;;;;;20908813;23;20299;-70
2023/10/17 14:37:17;;;;;;;2.03;1.20;;;;;;;;;;20864173;28;20234;-70
2023/10/17 14:47:19;;;;;;;1.63;1.13;;;;;;;;;;20869206;28;20746;-70
2023/10/17 14:57:21;;;;;;;2.23;1.00;;;;;;;;;;20832059;28;20242;-70
2023/10/17 15:07:23;;;;;;;2.47;1.10;;;;;;;;;;20878094;28;20351;-69
2023/10/17 15:17:26;;;;;;;1.43;0.80;;;10.80;99.90;;;;;;20847762;28;20700;-70
2023/10/17 15:27:27;;;;;;;1.80;1.00;;;;;;;;;;20820195;28;20226;-69
2023/10/17 15:37:29;;;;;;;1.43;1.00;;;;;;;;;;20864069;28;20238;-70
2023/10/17 15:47:31;;;;;;;2.43;1.07;;;;;;;;;;20853912;28;20248;-69
2023/10/17 15:57:34;;;;;;;2.00;1.03;;;10.70;99.90;;;;;;20868644;28;20237;-69
2023/10/17 16:07:38;;;;;;;5.43;3.03;;;;;;;;;;20860920;28;20230;-68
2023/10/17 16:17:40;;;;;;;3.07;1.43;;;;;;;;;;20867017;28;20237;-69
2023/10/17 16:27:47;;;;;;;2.03;1.40;;;;;;;;;;20876447;28;20234;-69
2023/10/17 16:37:49;;;;;;;3.47;1.60;;;;;;;;;;20851402;28;20283;-69
2023/10/17 16:47:51;;;;;;;2.80;1.57;;;;;;;;;;20810155;28;20873;-69
2023/10/17 16:57:54;;;;;;;2.80;1.60;;;;;;;;;;20823339;28;20257;-69
2023/10/17 17:07:57;;;;;;;3.70;1.20;;;;;;;;;;20847432;28;20564;-69
2023/10/17 17:17:58;;;;;;;4.43;1.80;;;;;;;;;;20847168;28;20598;-69
2023/10/17 17:28:00;;;;;;;4.33;1.50;;;;;;;;;;20813951;28;20292;-70
2023/10/17 17:38:02;;;;;;;2.63;1.47;;;;;;;;;;20848687;28;20218;-70
2023/10/17 17:48:04;;;;;;;3.90;1.40;;;9.80;99.90;;;;;;20843537;28;20725;-70
2023/10/17 17:58:07;;;;;;;4.60;1.50;;;;;;;;;;20863009;28;20278;-70
2023/10/17 18:08:08;;;;;;;2.57;1.30;;;;;;;;;;20849091;28;20248;-70
2023/10/17 18:18:10;;;;;;;2.43;1.50;;;;;;;;;;20840520;28;20233;-70
2023/10/17 18:28:12;;;;;;;1.97;1.30;;;;;;;;;;20869452;28;20274;-70
2023/10/17 18:38:15;;;;;;;2.90;1.33;;;;;;;;;;20818797;28;20225;-70
2023/10/17 18:48:17;;;;;;;3.77;1.83;;;;;;;;;;20840069;28;20276;-70
2023/10/17 18:58:19;;;;;;;3.17;1.67;;;;;;;;;;20867581;28;20225;-70
2023/10/17 19:08:24;;;;;;;4.63;2.00;;;;;;;;;;20852267;28;20644;-70
2023/10/17 19:18:27;;;;;;;4.50;3.00;;;;;;;;;;20845299;28;20628;-69
2023/10/17 19:28:30;;;;;;;4.50;1.67;;;;;;;;;;20851209;28;20728;-70
2023/10/17 19:38:32;;;;;;;1.80;1.20;;;;;;;;;;20818821;28;20233;-69
2023/10/17 19:48:34;;;;;;;4.20;1.50;;;;;;;;;;20868793;28;20206;-70
2023/10/17 19:58:37;;;;;;;4.37;1.80;;;;;;;;;;20861011;28;20246;-70
2023/10/17 20:08:38;;;;;;;2.67;1.63;;;;;;;;;;20834014;28;20201;-71
2023/10/17 20:18:40;;;;;;;3.47;1.97;;;;;;;;;;20841066;28;20823;-70
2023/10/17 20:28:42;;;;;;;2.13;1.20;;;;;;;;;;20824173;28;20423;-70
2023/10/17 20:38:44;;;;;;;3.40;1.70;;;;;;;;;;20832218;28;20214;-70
2023/10/17 20:48:48;;;;;;;4.20;1.73;;;;;;;;;;20829220;28;20252;-70
2023/10/17 20:58:50;;;;;;;5.37;1.80;;;;;;;;;;20883530;23;20278;-77
2023/10/17 21:08:52;;;;;;;4.93;1.60;;;;;;;;;;20999103;28;20252;-78
2023/10/17 21:18:54;;;;;;;2.03;1.20;;;;;;;;;;20907869;28;20222;-77
2023/10/17 21:28:56;;;;;;;3.10;1.50;;;;;;;;;;20918846;28;20267;-77
2023/10/17 21:38:58;;;;;;;3.20;1.27;;;;;;;;;;20922123;28;20234;-77
2023/10/17 21:49:00;;;;;;;2.43;1.40;;;;;;;;;;20910463;28;20704;-78
2023/10/17 21:59:02;;;;;;;2.60;1.70;;;;;;;;;;20928433;28;20237;-78
2023/10/17 22:09:04;;;;;;;2.87;1.60;;;;;;;;;;20927442;28;20213;-78
2023/10/17 22:19:05;;;;;;;3.20;1.43;;;;;;;;;;20929002;28;20234;-77
2023/10/17 22:29:07;;;;;;;2.77;1.37;;;;;;;;;;20892870;28;20237;-78
2023/10/17 22:39:11;;;;;;;2.50;1.17;;;;;;;;;;20893449;28;20514;-78
2023/10/17 22:49:12;;;;;;;2.00;0.90;;;;;;;;;;20910939;28;20217;-78
2023/10/17 22:59:14;;;;;;;1.60;0.90;;;;;;;;;;20904635;28;20876;-78
2023/10/17 23:09:17;;;;;;;2.43;1.40;;;;;;;;;;20911610;28;20222;-77
2023/10/17 23:19:18;;;;;;;4.13;1.30;;;;;;;;;;20883154;28;20225;-79
2023/10/17 23:29:21;;;;;;;1.87;0.97;;;;;;;;;;20890654;28;20275;-78
2023/10/17 23:39:26;;;;;;;1.57;1.00;;;;;;;;;;20889380;28;20229;-79
2023/10/17 23:49:30;;;;;;;1.80;1.07;;;;;;;;;;20889311;28;20639;-78
2023/10/17 23:59:32;;;;;;;2.00;1.20;;;;;;;;;;20871428;28;20230;-78
